sensor_id;sensor_type;location;lat;lon;timestamp;pressure;altitude;pressure_sealevel;temperature;humidity
75166;BME280;63747;48.042;10.088;2023-07-02T00:01:40;94674.63;;;15.62;69.68
75166;BME280;63747;48.042;10.088;2023-07-02T00:04:41;94664.38;;;15.59;69.80
75166;BME280;63747;48.042;10.088;2023-07-02T00:07:42;94665.63;;;15.57;70.29
75166;BME280;63747;48.042;10.088;2023-07-02T00:10:43;94668.50;;;15.55;70.10
75166;BME280;63747;48.042;10.088;2023-07-02T00:13:43;94662.78;;;15.51;69.85
75166;BME280;63747;48.042;10.088;2023-07-02T00:16:45;94678.44;;;15.48;70.53
75166;BME280;63747;48.042;10.088;2023-07-02T00:19:46;94669.00;;;15.45;70.22
75166;BME280;63747;48.042;10.088;2023-07-02T00:22:49;94675.16;;;15.46;70.42
75166;BME280;63747;48.042;10.088;2023-07-02T00:25:49;94675.72;;;15.55;70.50
75166;BME280;63747;48.042;10.088;2023-07-02T00:28:51;94678.75;;;15.58;70.46
75166;BME280;63747;48.042;10.088;2023-07-02T00:31:52;94679.59;;;15.59;70.92
75166;BME280;63747;48.042;10.088;2023-07-02T00:34:53;94676.31;;;15.57;70.21
75166;BME280;63747;48.042;10.088;2023-07-02T00:37:53;94677.75;;;15.59;70.49
75166;BME280;63747;48.042;10.088;2023-07-02T00:40:55;94666.06;;;15.54;69.70
75166;BME280;63747;48.042;10.088;2023-07-02T00:43:55;94666.44;;;15.57;69.96
75166;BME280;63747;48.042;10.088;2023-07-02T00:46:56;94665.56;;;15.63;69.77
75166;BME280;63747;48.042;10.088;2023-07-02T00:49:57;94665.16;;;15.66;70.14
75166;BME280;63747;48.042;10.088;2023-07-02T00:52:58;94665.56;;;15.63;70.25
75166;BME280;63747;48.042;10.088;2023-07-02T00:55:58;94677.06;;;15.64;70.37
75166;BME280;63747;48.042;10.088;2023-07-02T00:58:59;94673.00;;;15.61;70.58
75166;BME280;63747;48.042;10.088;2023-07-02T01:02:01;94672.53;;;15.64;70.32
75166;BME280;63747;48.042;10.088;2023-07-02T01:05:02;94668.47;;;15.62;70.57
75166;BME280;63747;48.042;10.088;2023-07-02T01:08:06;94661.03;;;15.64;70.09
75166;BME280;63747;48.042;10.088;2023-07-02T01:11:07;94659.00;;;15.66;70.57
75166;BME280;63747;48.042;10.088;2023-07-02T01:14:14;94662.25;;;15.68;70.63
75166;BME280;63747;48.042;10.088;2023-07-02T01:17:15;94663.88;;;15.69;70.20
75166;BME280;63747;48.042;10.088;2023-07-02T01:20:19;94662.25;;;15.68;70.64
75166;BME280;63747;48.042;10.088;2023-07-02T01:23:20;94658.22;;;15.59;70.81
75166;BME280;63747;48.042;10.088;2023-07-02T01:26:21;94667.88;;;15.60;69.96
75166;BME280;63747;48.042;10.088;2023-07-02T01:29:22;94657.00;;;15.55;70.64
75166;BME280;63747;48.042;10.088;2023-07-02T01:32:22;94666.25;;;15.59;70.71
75166;BME280;63747;48.042;10.088;2023-07-02T01:35:23;94656.78;;;15.56;70.67
75166;BME280;63747;48.042;10.088;2023-07-02T01:38:24;94651.06;;;15.53;71.26
75166;BME280;63747;48.042;10.088;2023-07-02T01:41:25;94664.44;;;15.53;71.25
75166;BME280;63747;48.042;10.088;2023-07-02T01:44:25;94654.22;;;15.43;71.84
75166;BME280;63747;48.042;10.088;2023-07-02T01:47:26;94660.09;;;15.51;71.44
75166;BME280;63747;48.042;10.088;2023-07-02T01:50:27;94665.25;;;15.53;71.16
75166;BME280;63747;48.042;10.088;2023-07-02T01:53:27;94674.09;;;15.54;71.22
75166;BME280;63747;48.042;10.088;2023-07-02T01:56:28;94663.81;;;15.50;71.47
75166;BME280;63747;48.042;10.088;2023-07-02T01:59:29;94668.97;;;15.52;71.12
75166;BME280;63747;48.042;10.088;2023-07-02T02:02:29;94674.31;;;15.52;71.48
75166;BME280;63747;48.042;10.088;2023-07-02T02:05:30;94671.63;;;15.52;71.03
75166;BME280;63747;48.042;10.088;2023-07-02T02:08:31;94669.38;;;15.49;71.24
75166;BME280;63747;48.042;10.088;2023-07-02T02:11:32;94669.97;;;15.51;71.21
75166;BME280;63747;48.042;10.088;2023-07-02T02:14:34;94664.22;;;15.54;70.36
75166;BME280;63747;48.042;10.088;2023-07-02T02:17:34;94663.22;;;15.48;70.56
75166;BME280;63747;48.042;10.088;2023-07-02T02:20:35;94674.34;;;15.45;70.69
75166;BME280;63747;48.042;10.088;2023-07-02T02:23:36;94678.47;;;15.41;70.81
75166;BME280;63747;48.042;10.088;2023-07-02T02:26:37;94675.59;;;15.43;70.66
75166;BME280;63747;48.042;10.088;2023-07-02T02:29:37;94676.84;;;15.40;70.40
75166;BME280;63747;48.042;10.088;2023-07-02T02:32:38;94689.97;;;15.42;70.22
75166;BME280;63747;48.042;10.088;2023-07-02T02:35:39;94690.19;;;15.40;70.42
75166;BME280;63747;48.042;10.088;2023-07-02T02:38:39;94689.44;;;15.33;70.76
75166;BME280;63747;48.042;10.088;2023-07-02T02:41:40;94688.38;;;15.34;70.73
75166;BME280;63747;48.042;10.088;2023-07-02T02:44:41;94686.13;;;15.31;70.75
75166;BME280;63747;48.042;10.088;2023-07-02T02:47:42;94688.38;;;15.34;70.66
75166;BME280;63747;48.042;10.088;2023-07-02T02:50:42;94689.78;;;15.37;70.65
75166;BME280;63747;48.042;10.088;2023-07-02T02:53:43;94695.34;;;15.35;70.06
75166;BME280;63747;48.042;10.088;2023-07-02T02:56:44;94691.47;;;15.31;70.33
75166;BME280;63747;48.042;10.088;2023-07-02T02:59:44;94699.91;;;15.28;70.48
75166;BME280;63747;48.042;10.088;2023-07-02T03:02:45;94696.72;;;15.13;70.49
75166;BME280;63747;48.042;10.088;2023-07-02T03:05:46;94699.78;;;15.10;70.46
75166;BME280;63747;48.042;10.088;2023-07-02T03:08:48;94686.25;;;15.11;70.76
75166;BME280;63747;48.042;10.088;2023-07-02T03:11:49;94698.13;;;15.15;70.63
75166;BME280;63747;48.042;10.088;2023-07-02T03:14:49;94698.75;;;15.11;70.65
75166;BME280;63747;48.042;10.088;2023-07-02T03:17:53;94699.97;;;15.15;70.94
75166;BME280;63747;48.042;10.088;2023-07-02T03:20:53;94704.50;;;15.14;70.86
75166;BME280;63747;48.042;10.088;2023-07-02T03:23:54;94698.72;;;15.17;71.13
75166;BME280;63747;48.042;10.088;2023-07-02T03:26:55;94699.75;;;15.23;70.62
75166;BME280;63747;48.042;10.088;2023-07-02T03:29:55;94703.44;;;15.22;70.59
75166;BME280;63747;48.042;10.088;2023-07-02T03:32:57;94701.59;;;15.22;70.80
75166;BME280;63747;48.042;10.088;2023-07-02T03:35:58;94710.00;;;15.26;70.52
75166;BME280;63747;48.042;10.088;2023-07-02T03:38:59;94711.47;;;15.22;71.05
75166;BME280;63747;48.042;10.088;2023-07-02T03:41:59;94710.66;;;15.21;70.68
75166;BME280;63747;48.042;10.088;2023-07-02T03:45:00;94711.88;;;15.26;70.29
75166;BME280;63747;48.042;10.088;2023-07-02T03:48:01;94711.00;;;15.32;70.43
75166;BME280;63747;48.042;10.088;2023-07-02T03:51:01;94705.63;;;15.38;70.46
75166;BME280;63747;48.042;10.088;2023-07-02T03:54:03;94712.97;;;15.43;70.36
75166;BME280;63747;48.042;10.088;2023-07-02T03:57:04;94718.53;;;15.41;70.24
75166;BME280;63747;48.042;10.088;2023-07-02T04:00:05;94727.00;;;15.38;70.95
75166;BME280;63747;48.042;10.088;2023-07-02T04:03:08;94730.06;;;15.35;70.83
75166;BME280;63747;48.042;10.088;2023-07-02T04:06:08;94729.84;;;15.37;70.67
75166;BME280;63747;48.042;10.088;2023-07-02T04:09:09;94733.97;;;15.39;70.91
75166;BME280;63747;48.042;10.088;2023-07-02T04:12:10;94737.81;;;15.43;70.53
75166;BME280;63747;48.042;10.088;2023-07-02T04:15:10;94740.09;;;15.46;70.64
75166;BME280;63747;48.042;10.088;2023-07-02T04:18:11;94743.38;;;15.42;70.93
75166;BME280;63747;48.042;10.088;2023-07-02T04:21:12;94746.06;;;15.42;70.84
75166;BME280;63747;48.042;10.088;2023-07-02T04:24:12;94736.81;;;15.38;71.04
75166;BME280;63747;48.042;10.088;2023-07-02T04:27:13;94748.78;;;15.35;71.38
75166;BME280;63747;48.042;10.088;2023-07-02T04:30:14;94746.09;;;15.35;71.56
75166;BME280;63747;48.042;10.088;2023-07-02T04:33:15;94749.13;;;15.45;70.90
75166;BME280;63747;48.042;10.088;2023-07-02T04:36:15;94749.13;;;15.45;71.24
75166;BME280;63747;48.042;10.088;2023-07-02T04:39:16;94746.66;;;15.44;71.63
75166;BME280;63747;48.042;10.088;2023-07-02T04:42:17;94752.78;;;15.51;71.40
75166;BME280;63747;48.042;10.088;2023-07-02T04:45:18;94752.13;;;15.56;71.05
75166;BME280;63747;48.042;10.088;2023-07-02T04:48:18;94747.03;;;15.54;71.10
75166;BME280;63747;48.042;10.088;2023-07-02T04:51:20;94749.66;;;15.61;71.13
75166;BME280;63747;48.042;10.088;2023-07-02T04:54:21;94746.94;;;15.67;70.72
75166;BME280;63747;48.042;10.088;2023-07-02T04:57:22;94754.91;;;15.74;70.68
75166;BME280;63747;48.042;10.088;2023-07-02T05:00:23;94754.69;;;15.75;70.68
75166;BME280;63747;48.042;10.088;2023-07-02T05:03:23;94754.84;;;15.81;70.55
75166;BME280;63747;48.042;10.088;2023-07-02T05:06:24;94754.63;;;15.82;70.47
75166;BME280;63747;48.042;10.088;2023-07-02T05:09:25;94755.50;;;15.76;71.09
75166;BME280;63747;48.042;10.088;2023-07-02T05:12:26;94755.50;;;15.76;70.84
75166;BME280;63747;48.042;10.088;2023-07-02T05:15:26;94752.38;;;15.86;70.63
75166;BME280;63747;48.042;10.088;2023-07-02T05:18:27;94760.75;;;15.89;70.53
75166;BME280;63747;48.042;10.088;2023-07-02T05:21:28;94760.56;;;15.84;70.64
75166;BME280;63747;48.042;10.088;2023-07-02T05:24:28;94770.22;;;15.85;70.77
75166;BME280;63747;48.042;10.088;2023-07-02T05:27:29;94765.28;;;15.89;70.52
75166;BME280;63747;48.042;10.088;2023-07-02T05:30:30;94773.13;;;15.84;70.93
75166;BME280;63747;48.042;10.088;2023-07-02T05:33:30;94780.91;;;15.85;70.72
75166;BME280;63747;48.042;10.088;2023-07-02T05:36:32;94774.94;;;15.90;70.80
75166;BME280;63747;48.042;10.088;2023-07-02T05:39:34;94784.34;;;15.92;70.57
75166;BME280;63747;48.042;10.088;2023-07-02T05:42:35;94783.94;;;15.95;70.20
75166;BME280;63747;48.042;10.088;2023-07-02T05:45:37;94786.78;;;16.00;69.98
75166;BME280;63747;48.042;10.088;2023-07-02T05:48:38;94790.97;;;15.90;69.91
75166;BME280;63747;48.042;10.088;2023-07-02T05:51:39;94792.50;;;15.79;69.73
75166;BME280;63747;48.042;10.088;2023-07-02T05:54:42;94800.38;;;15.67;69.72
75166;BME280;63747;48.042;10.088;2023-07-02T05:57:43;94802.97;;;15.42;70.43
75166;BME280;63747;48.042;10.088;2023-07-02T06:00:43;94812.66;;;15.30;70.97
75166;BME280;63747;48.042;10.088;2023-07-02T06:03:49;94814.16;;;15.13;71.74
75166;BME280;63747;48.042;10.088;2023-07-02T06:06:50;94822.41;;;15.11;71.91
75166;BME280;63747;48.042;10.088;2023-07-02T06:09:51;94821.97;;;15.08;72.14
75166;BME280;63747;48.042;10.088;2023-07-02T06:12:51;94822.19;;;15.06;72.13
75166;BME280;63747;48.042;10.088;2023-07-02T06:15:52;94825.50;;;15.02;71.79
75166;BME280;63747;48.042;10.088;2023-07-02T06:18:53;94826.94;;;14.97;72.64
75166;BME280;63747;48.042;10.088;2023-07-02T06:21:53;94831.66;;;14.95;72.32
75166;BME280;63747;48.042;10.088;2023-07-02T06:24:54;94835.38;;;14.88;72.07
75166;BME280;63747;48.042;10.088;2023-07-02T06:27:55;94841.34;;;14.77;72.74
75166;BME280;63747;48.042;10.088;2023-07-02T06:30:58;94847.69;;;14.82;72.91
75166;BME280;63747;48.042;10.088;2023-07-02T06:33:58;94843.00;;;14.84;72.95
75166;BME280;63747;48.042;10.088;2023-07-02T06:36:59;94847.06;;;14.93;72.66
75166;BME280;63747;48.042;10.088;2023-07-02T06:40:05;94852.59;;;15.05;72.56
75166;BME280;63747;48.042;10.088;2023-07-02T06:43:05;94845.38;;;15.19;72.32
75166;BME280;63747;48.042;10.088;2023-07-02T06:46:06;94850.69;;;15.32;72.01
75166;BME280;63747;48.042;10.088;2023-07-02T06:49:07;94850.22;;;15.42;72.07
75166;BME280;63747;48.042;10.088;2023-07-02T06:52:08;94846.50;;;15.49;72.03
75166;BME280;63747;48.042;10.088;2023-07-02T06:55:09;94849.69;;;15.65;71.77
75166;BME280;63747;48.042;10.088;2023-07-02T06:58:09;94849.00;;;15.83;71.58
75166;BME280;63747;48.042;10.088;2023-07-02T07:01:10;94846.72;;;15.86;71.05
75166;BME280;63747;48.042;10.088;2023-07-02T07:04:11;94846.88;;;15.91;71.54
75166;BME280;63747;48.042;10.088;2023-07-02T07:07:12;94848.44;;;16.05;71.88
75166;BME280;63747;48.042;10.088;2023-07-02T07:10:12;94862.56;;;16.19;71.54
75166;BME280;63747;48.042;10.088;2023-07-02T07:13:13;94862.13;;;16.22;71.46
75166;BME280;63747;48.042;10.088;2023-07-02T07:16:14;94858.38;;;16.30;71.21
75166;BME280;63747;48.042;10.088;2023-07-02T07:19:15;94862.41;;;16.39;71.19
75166;BME280;63747;48.042;10.088;2023-07-02T07:22:16;94866.13;;;16.38;70.64
75166;BME280;63747;48.042;10.088;2023-07-02T07:25:17;94865.34;;;16.31;70.97
75166;BME280;63747;48.042;10.088;2023-07-02T07:28:17;94866.84;;;16.27;71.40
75166;BME280;63747;48.042;10.088;2023-07-02T07:31:18;94869.03;;;16.37;71.07
75166;BME280;63747;48.042;10.088;2023-07-02T07:34:19;94863.00;;;16.66;70.38
75166;BME280;63747;48.042;10.088;2023-07-02T07:37:19;94867.06;;;16.94;69.62
75166;BME280;63747;48.042;10.088;2023-07-02T07:40:20;94861.22;;;17.03;69.22
75166;BME280;63747;48.042;10.088;2023-07-02T07:43:21;94866.78;;;17.08;69.23
75166;BME280;63747;48.042;10.088;2023-07-02T07:46:21;94873.56;;;17.04;69.37
75166;BME280;63747;48.042;10.088;2023-07-02T07:49:22;94865.44;;;17.18;68.87
75166;BME280;63747;48.042;10.088;2023-07-02T07:52:23;94863.81;;;17.35;68.37
75166;BME280;63747;48.042;10.088;2023-07-02T07:55:24;94871.91;;;17.47;67.38
75166;BME280;63747;48.042;10.088;2023-07-02T07:58:24;94862.72;;;17.73;67.54
75166;BME280;63747;48.042;10.088;2023-07-02T08:01:26;94862.59;;;18.28;66.53
75166;BME280;63747;48.042;10.088;2023-07-02T08:04:28;94872.16;;;18.89;63.93
75166;BME280;63747;48.042;10.088;2023-07-02T08:07:28;94865.50;;;18.80;62.40
75166;BME280;63747;48.042;10.088;2023-07-02T08:10:29;94864.56;;;19.21;62.48
75166;BME280;63747;48.042;10.088;2023-07-02T08:13:30;94858.28;;;19.55;61.98
75166;BME280;63747;48.042;10.088;2023-07-02T08:16:30;94865.88;;;19.70;60.36
75166;BME280;63747;48.042;10.088;2023-07-02T08:19:31;94864.88;;;19.48;60.95
75166;BME280;63747;48.042;10.088;2023-07-02T08:22:31;94870.25;;;19.48;60.51
75166;BME280;63747;48.042;10.088;2023-07-02T08:25:32;94873.94;;;19.70;60.05
75166;BME280;63747;48.042;10.088;2023-07-02T08:28:32;94870.88;;;19.78;59.88
75166;BME280;63747;48.042;10.088;2023-07-02T08:31:33;94868.56;;;19.99;59.68
75166;BME280;63747;48.042;10.088;2023-07-02T08:34:35;94875.31;;;19.84;59.43
75166;BME280;63747;48.042;10.088;2023-07-02T08:37:35;94868.75;;;20.21;56.85
75166;BME280;63747;48.042;10.088;2023-07-02T08:40:36;94871.94;;;20.34;55.77
75166;BME280;63747;48.042;10.088;2023-07-02T08:43:37;94865.50;;;20.35;55.60
75166;BME280;63747;48.042;10.088;2023-07-02T08:46:39;94883.16;;;20.43;53.16
75166;BME280;63747;48.042;10.088;2023-07-02T08:49:39;94874.56;;;20.46;52.30
75166;BME280;63747;48.042;10.088;2023-07-02T08:52:40;94870.25;;;20.45;53.87
75166;BME280;63747;48.042;10.088;2023-07-02T08:55:43;94889.28;;;21.06;52.83
75166;BME280;63747;48.042;10.088;2023-07-02T08:58:43;94883.88;;;21.61;50.21
75166;BME280;63747;48.042;10.088;2023-07-02T09:01:49;94881.25;;;21.83;49.81
75166;BME280;63747;48.042;10.088;2023-07-02T09:04:58;94873.63;;;22.29;48.85
75166;BME280;63747;48.042;10.088;2023-07-02T09:07:59;94871.19;;;22.27;47.53
75166;BME280;63747;48.042;10.088;2023-07-02T09:11:07;94882.38;;;22.63;47.76
75166;BME280;63747;48.042;10.088;2023-07-02T09:14:07;94888.72;;;22.79;47.08
75166;BME280;63747;48.042;10.088;2023-07-02T09:17:08;94891.38;;;22.74;47.00
75166;BME280;63747;48.042;10.088;2023-07-02T09:20:09;94886.69;;;22.96;46.26
75166;BME280;63747;48.042;10.088;2023-07-02T09:23:10;94885.28;;;22.57;46.85
75166;BME280;63747;48.042;10.088;2023-07-02T09:26:21;94883.25;;;23.06;45.85
75166;BME280;63747;48.042;10.088;2023-07-02T09:29:27;94883.03;;;23.13;45.75
75166;BME280;63747;48.042;10.088;2023-07-02T09:32:28;94892.75;;;23.14;45.41
75166;BME280;63747;48.042;10.088;2023-07-02T09:35:29;94879.91;;;23.26;45.22
75166;BME280;63747;48.042;10.088;2023-07-02T09:38:29;94886.44;;;23.35;44.40
75166;BME280;63747;48.042;10.088;2023-07-02T09:41:30;94883.81;;;23.45;43.96
75166;BME280;63747;48.042;10.088;2023-07-02T09:44:33;94887.47;;;23.29;44.33
75166;BME280;63747;48.042;10.088;2023-07-02T09:47:35;94877.31;;;23.46;44.75
75166;BME280;63747;48.042;10.088;2023-07-02T09:50:40;94883.09;;;23.65;43.94
75166;BME280;63747;48.042;10.088;2023-07-02T09:53:41;94885.56;;;23.77;41.66
75166;BME280;63747;48.042;10.088;2023-07-02T09:56:43;94886.63;;;23.66;43.11
75166;BME280;63747;48.042;10.088;2023-07-02T09:59:44;94886.63;;;23.66;42.16
75166;BME280;63747;48.042;10.088;2023-07-02T10:02:49;94885.56;;;23.72;41.77
75166;BME280;63747;48.042;10.088;2023-07-02T10:05:50;94889.09;;;23.30;42.74
75166;BME280;63747;48.042;10.088;2023-07-02T10:08:55;94889.56;;;23.64;41.88
75166;BME280;63747;48.042;10.088;2023-07-02T10:11:55;94887.50;;;23.81;42.88
75166;BME280;63747;48.042;10.088;2023-07-02T10:14:58;94876.00;;;24.16;41.80
75166;BME280;63747;48.042;10.088;2023-07-02T10:18:01;94878.91;;;23.89;41.75
75166;BME280;63747;48.042;10.088;2023-07-02T10:21:16;94880.41;;;24.48;41.50
75166;BME280;63747;48.042;10.088;2023-07-02T10:24:17;94886.72;;;24.69;40.77
75166;BME280;63747;48.042;10.088;2023-07-02T10:27:17;94892.03;;;24.28;41.37
75166;BME280;63747;48.042;10.088;2023-07-02T10:30:18;94884.63;;;23.51;41.51
75166;BME280;63747;48.042;10.088;2023-07-02T10:33:20;94884.13;;;23.17;42.52
75166;BME280;63747;48.042;10.088;2023-07-02T10:36:22;94885.59;;;23.24;41.38
75166;BME280;63747;48.042;10.088;2023-07-02T10:39:23;94887.31;;;23.08;42.71
75166;BME280;63747;48.042;10.088;2023-07-02T10:42:24;94886.00;;;23.16;43.00
75166;BME280;63747;48.042;10.088;2023-07-02T10:45:32;94876.16;;;23.37;42.69
75166;BME280;63747;48.042;10.088;2023-07-02T10:48:33;94885.78;;;23.18;42.40
75166;BME280;63747;48.042;10.088;2023-07-02T10:51:37;94888.59;;;23.33;42.07
75166;BME280;63747;48.042;10.088;2023-07-02T10:54:46;94898.53;;;23.70;41.38
75166;BME280;63747;48.042;10.088;2023-07-02T10:57:48;94883.03;;;24.07;40.20
75166;BME280;63747;48.042;10.088;2023-07-02T11:00:54;94881.22;;;24.49;39.84
75166;BME280;63747;48.042;10.088;2023-07-02T11:04:04;94878.31;;;24.91;40.11
75166;BME280;63747;48.042;10.088;2023-07-02T11:07:05;94878.06;;;24.87;40.08
75166;BME280;63747;48.042;10.088;2023-07-02T11:10:08;94882.38;;;25.34;39.35
75166;BME280;63747;48.042;10.088;2023-07-02T11:13:19;94883.19;;;25.24;39.48
75166;BME280;63747;48.042;10.088;2023-07-02T11:16:21;94893.22;;;25.34;39.61
75166;BME280;63747;48.042;10.088;2023-07-02T11:19:24;94882.94;;;25.21;39.62
75166;BME280;63747;48.042;10.088;2023-07-02T11:22:34;94880.75;;;24.67;39.71
75166;BME280;63747;48.042;10.088;2023-07-02T11:25:35;94876.59;;;24.39;40.66
75166;BME280;63747;48.042;10.088;2023-07-02T11:28:48;94876.34;;;24.51;40.63
75166;BME280;63747;48.042;10.088;2023-07-02T11:31:49;94877.50;;;25.21;39.99
75166;BME280;63747;48.042;10.088;2023-07-02T11:34:53;94874.19;;;25.55;40.76
75166;BME280;63747;48.042;10.088;2023-07-02T11:37:54;94871.66;;;25.89;39.25
75166;BME280;63747;48.042;10.088;2023-07-02T11:40:55;94865.34;;;26.03;39.20
75166;BME280;63747;48.042;10.088;2023-07-02T11:43:56;94864.19;;;26.15;39.69
75166;BME280;63747;48.042;10.088;2023-07-02T11:46:56;94868.16;;;26.43;38.91
75166;BME280;63747;48.042;10.088;2023-07-02T11:49:57;94875.44;;;26.47;38.11
75166;BME280;63747;48.042;10.088;2023-07-02T11:52:59;94864.75;;;26.12;37.92
75166;BME280;63747;48.042;10.088;2023-07-02T11:55:59;94867.16;;;25.33;39.26
75166;BME280;63747;48.042;10.088;2023-07-02T11:59:00;94866.00;;;25.75;38.62
75166;BME280;63747;48.042;10.088;2023-07-02T12:02:01;94864.41;;;25.59;39.19
75166;BME280;63747;48.042;10.088;2023-07-02T12:05:02;94862.25;;;25.50;39.90
75166;BME280;63747;48.042;10.088;2023-07-02T12:08:03;94860.41;;;25.20;39.46
75166;BME280;63747;48.042;10.088;2023-07-02T12:11:04;94855.53;;;25.02;39.56
75166;BME280;63747;48.042;10.088;2023-07-02T12:14:05;94854.72;;;25.02;39.88
75166;BME280;63747;48.042;10.088;2023-07-02T12:17:05;94848.50;;;24.81;40.09
75166;BME280;63747;48.042;10.088;2023-07-02T12:20:06;94852.84;;;24.66;40.14
75166;BME280;63747;48.042;10.088;2023-07-02T12:23:07;94866.78;;;24.17;40.25
75166;BME280;63747;48.042;10.088;2023-07-02T12:26:09;94866.22;;;24.00;41.03
75166;BME280;63747;48.042;10.088;2023-07-02T12:29:10;94858.16;;;24.21;41.01
75166;BME280;63747;48.042;10.088;2023-07-02T12:32:10;94848.97;;;24.37;41.63
75166;BME280;63747;48.042;10.088;2023-07-02T12:35:11;94852.00;;;24.76;41.07
75166;BME280;63747;48.042;10.088;2023-07-02T12:38:12;94852.78;;;25.38;39.67
75166;BME280;63747;48.042;10.088;2023-07-02T12:41:14;94843.59;;;25.23;40.17
75166;BME280;63747;48.042;10.088;2023-07-02T12:44:14;94844.41;;;25.09;40.48
75166;BME280;63747;48.042;10.088;2023-07-02T12:47:15;94839.00;;;24.78;40.48
75166;BME280;63747;48.042;10.088;2023-07-02T12:50:16;94836.53;;;25.07;40.27
75166;BME280;63747;48.042;10.088;2023-07-02T12:53:16;94839.16;;;25.58;40.80
75166;BME280;63747;48.042;10.088;2023-07-02T12:56:17;94844.16;;;26.00;38.82
75166;BME280;63747;48.042;10.088;2023-07-02T12:59:18;94834.31;;;25.50;39.62
75166;BME280;63747;48.042;10.088;2023-07-02T13:02:20;94835.44;;;25.13;40.54
75166;BME280;63747;48.042;10.088;2023-07-02T13:05:20;94839.78;;;24.99;40.50
75166;BME280;63747;48.042;10.088;2023-07-02T13:08:21;94844.34;;;25.39;40.47
75166;BME280;63747;48.042;10.088;2023-07-02T13:11:22;94832.47;;;25.10;38.53
75166;BME280;63747;48.042;10.088;2023-07-02T13:14:22;94831.16;;;24.87;39.80
75166;BME280;63747;48.042;10.088;2023-07-02T13:17:23;94837.34;;;24.97;40.56
75166;BME280;63747;48.042;10.088;2023-07-02T13:20:24;94840.88;;;24.98;39.70
75166;BME280;63747;48.042;10.088;2023-07-02T13:23:25;94837.59;;;24.50;40.46
75166;BME280;63747;48.042;10.088;2023-07-02T13:26:26;94834.34;;;24.28;40.71
75166;BME280;63747;48.042;10.088;2023-07-02T13:29:26;94838.59;;;24.03;41.32
75166;BME280;63747;48.042;10.088;2023-07-02T13:32:27;94831.06;;;24.21;41.81
75166;BME280;63747;48.042;10.088;2023-07-02T13:35:28;94834.38;;;24.99;40.41
75166;BME280;63747;48.042;10.088;2023-07-02T13:38:28;94834.38;;;25.14;39.78
75166;BME280;63747;48.042;10.088;2023-07-02T13:41:29;94830.56;;;25.00;39.12
75166;BME280;63747;48.042;10.088;2023-07-02T13:44:31;94831.16;;;24.87;39.72
75166;BME280;63747;48.042;10.088;2023-07-02T13:47:32;94832.19;;;25.11;39.21
75166;BME280;63747;48.042;10.088;2023-07-02T13:50:32;94831.38;;;25.26;39.11
75166;BME280;63747;48.042;10.088;2023-07-02T13:53:34;94820.16;;;25.58;38.33
75166;BME280;63747;48.042;10.088;2023-07-02T13:56:34;94819.69;;;25.31;39.11
75166;BME280;63747;48.042;10.088;2023-07-02T13:59:35;94819.34;;;25.63;38.91
75166;BME280;63747;48.042;10.088;2023-07-02T14:02:36;94815.81;;;25.57;37.57
75166;BME280;63747;48.042;10.088;2023-07-02T14:05:36;94821.91;;;25.08;38.11
75166;BME280;63747;48.042;10.088;2023-07-02T14:08:37;94822.72;;;24.88;38.32
75166;BME280;63747;48.042;10.088;2023-07-02T14:11:39;94825.41;;;25.19;37.46
75166;BME280;63747;48.042;10.088;2023-07-02T14:14:40;94818.66;;;24.70;38.43
75166;BME280;63747;48.042;10.088;2023-07-02T14:17:41;94819.97;;;24.53;39.42
75166;BME280;63747;48.042;10.088;2023-07-02T14:20:42;94822.97;;;24.41;39.37
75166;BME280;63747;48.042;10.088;2023-07-02T14:23:43;94821.28;;;24.09;39.68
75166;BME280;63747;48.042;10.088;2023-07-02T14:26:44;94810.34;;;23.79;40.25
75166;BME280;63747;48.042;10.088;2023-07-02T14:29:45;94821.38;;;23.62;40.30
75166;BME280;63747;48.042;10.088;2023-07-02T14:32:47;94821.25;;;23.31;40.92
75166;BME280;63747;48.042;10.088;2023-07-02T14:35:48;94825.44;;;23.17;41.13
75166;BME280;63747;48.042;10.088;2023-07-02T14:38:49;94829.63;;;22.93;41.46
75166;BME280;63747;48.042;10.088;2023-07-02T14:41:50;94831.78;;;22.91;42.39
75166;BME280;63747;48.042;10.088;2023-07-02T14:44:50;94832.72;;;23.12;42.44
75166;BME280;63747;48.042;10.088;2023-07-02T14:47:51;94827.72;;;23.25;42.17
75166;BME280;63747;48.042;10.088;2023-07-02T14:50:54;94820.44;;;23.36;42.16
75166;BME280;63747;48.042;10.088;2023-07-02T14:53:56;94835.31;;;23.33;42.43
75166;BME280;63747;48.042;10.088;2023-07-02T14:56:57;94813.72;;;23.39;42.78
75166;BME280;63747;48.042;10.088;2023-07-02T14:59:58;94819.94;;;23.39;41.87
75166;BME280;63747;48.042;10.088;2023-07-02T15:02:59;94823.00;;;23.16;42.32
75166;BME280;63747;48.042;10.088;2023-07-02T15:06:11;94809.84;;;23.24;42.47
75166;BME280;63747;48.042;10.088;2023-07-02T15:09:12;94826.31;;;23.23;42.37
75166;BME280;63747;48.042;10.088;2023-07-02T15:12:13;94833.13;;;23.30;42.41
75166;BME280;63747;48.042;10.088;2023-07-02T15:15:14;94826.34;;;23.28;42.26
75166;BME280;63747;48.042;10.088;2023-07-02T15:18:15;94827.81;;;23.46;42.56
75166;BME280;63747;48.042;10.088;2023-07-02T15:21:16;94829.72;;;24.28;41.29
75166;BME280;63747;48.042;10.088;2023-07-02T15:24:18;94824.56;;;24.22;40.41
75166;BME280;63747;48.042;10.088;2023-07-02T15:27:19;94819.72;;;24.34;40.85
75166;BME280;63747;48.042;10.088;2023-07-02T15:30:19;94811.84;;;24.37;40.68
75166;BME280;63747;48.042;10.088;2023-07-02T15:33:21;94811.88;;;24.58;40.42
75166;BME280;63747;48.042;10.088;2023-07-02T15:36:22;94816.19;;;25.15;40.56
75166;BME280;63747;48.042;10.088;2023-07-02T15:39:23;94815.38;;;25.19;39.32
75166;BME280;63747;48.042;10.088;2023-07-02T15:42:26;94812.13;;;25.28;38.72
75166;BME280;63747;48.042;10.088;2023-07-02T15:45:29;94805.56;;;25.39;38.51
75166;BME280;63747;48.042;10.088;2023-07-02T15:48:30;94815.06;;;25.41;38.26